sensor_id;sensor_type;location;lat;lon;timestamp;temperature;humidity
1011;DHT22;494;48.744;10.106;2022-08-21T00:02:22;17.40;59.90
1011;DHT22;494;48.744;10.106;2022-08-21T00:04:52;17.20;60.10
1011;DHT22;494;48.744;10.106;2022-08-21T00:07:25;17.20;60.50
1011;DHT22;494;48.744;10.106;2022-08-21T00:09:54;17.20;60.20
1011;DHT22;494;48.744;10.106;2022-08-21T00:12:23;17.20;59.60
1011;DHT22;494;48.744;10.106;2022-08-21T00:14:51;17.20;59.40
1011;DHT22;494;48.744;10.106;2022-08-21T00:17:24;17.20;59.30
1011;DHT22;494;48.744;10.106;2022-08-21T00:19:52;17.10;59.00
1011;DHT22;494;48.744;10.106;2022-08-21T00:22:21;17.10;59.00
1011;DHT22;494;48.744;10.106;2022-08-21T00:24:51;17.00;59.10
1011;DHT22;494;48.744;10.106;2022-08-21T00:27:20;17.00;59.10
1011;DHT22;494;48.744;10.106;2022-08-21T00:29:48;17.10;59.10
1011;DHT22;494;48.744;10.106;2022-08-21T00:32:20;17.10;59.00
1011;DHT22;494;48.744;10.106;2022-08-21T00:34:50;17.10;58.40
1011;DHT22;494;48.744;10.106;2022-08-21T00:37:19;17.00;58.40
1011;DHT22;494;48.744;10.106;2022-08-21T00:39:50;17.00;58.40
1011;DHT22;494;48.744;10.106;2022-08-21T00:42:20;17.00;58.10
1011;DHT22;494;48.744;10.106;2022-08-21T00:44:49;16.90;58.00
1011;DHT22;494;48.744;10.106;2022-08-21T00:47:19;16.80;58.60
1011;DHT22;494;48.744;10.106;2022-08-21T00:49:48;16.70;58.90
1011;DHT22;494;48.744;10.106;2022-08-21T00:52:19;16.70;58.90
1011;DHT22;494;48.744;10.106;2022-08-21T00:54:52;16.70;58.70
1011;DHT22;494;48.744;10.106;2022-08-21T00:57:27;16.70;58.70
1011;DHT22;494;48.744;10.106;2022-08-21T01:00:03;16.60;58.40
1011;DHT22;494;48.744;10.106;2022-08-21T01:02:36;16.60;58.50
1011;DHT22;494;48.744;10.106;2022-08-21T01:05:06;16.50;58.60
1011;DHT22;494;48.744;10.106;2022-08-21T01:07:35;16.50;58.60
1011;DHT22;494;48.744;10.106;2022-08-21T01:10:07;16.50;58.50
1011;DHT22;494;48.744;10.106;2022-08-21T01:12:50;16.50;58.30
1011;DHT22;494;48.744;10.106;2022-08-21T01:15:23;16.60;58.20
1011;DHT22;494;48.744;10.106;2022-08-21T01:17:55;16.60;58.10
1011;DHT22;494;48.744;10.106;2022-08-21T01:20:24;16.60;58.00
1011;DHT22;494;48.744;10.106;2022-08-21T01:23:00;16.50;57.90
1011;DHT22;494;48.744;10.106;2022-08-21T01:25:30;16.50;57.60
1011;DHT22;494;48.744;10.106;2022-08-21T01:28:03;16.40;58.10
1011;DHT22;494;48.744;10.106;2022-08-21T01:30:37;16.30;58.30
1011;DHT22;494;48.744;10.106;2022-08-21T01:33:08;16.20;58.60
1011;DHT22;494;48.744;10.106;2022-08-21T01:35:38;16.20;58.60
1011;DHT22;494;48.744;10.106;2022-08-21T01:38:08;16.10;59.50
1011;DHT22;494;48.744;10.106;2022-08-21T01:40:36;16.00;59.20
1011;DHT22;494;48.744;10.106;2022-08-21T01:43:05;15.90;59.50
1011;DHT22;494;48.744;10.106;2022-08-21T01:45:34;15.90;59.80
1011;DHT22;494;48.744;10.106;2022-08-21T01:48:03;15.70;60.30
1011;DHT22;494;48.744;10.106;2022-08-21T01:50:32;15.70;60.60
1011;DHT22;494;48.744;10.106;2022-08-21T01:53:00;15.60;61.40
1011;DHT22;494;48.744;10.106;2022-08-21T01:55:30;15.60;60.70
1011;DHT22;494;48.744;10.106;2022-08-21T01:58:00;15.50;60.90
1011;DHT22;494;48.744;10.106;2022-08-21T02:00:28;15.50;60.90
1011;DHT22;494;48.744;10.106;2022-08-21T02:02:59;15.50;60.70
1011;DHT22;494;48.744;10.106;2022-08-21T02:05:27;15.50;60.60
1011;DHT22;494;48.744;10.106;2022-08-21T02:07:56;15.60;60.50
1011;DHT22;494;48.744;10.106;2022-08-21T02:10:27;15.50;60.50
1011;DHT22;494;48.744;10.106;2022-08-21T02:12:59;15.50;60.50
1011;DHT22;494;48.744;10.106;2022-08-21T02:15:28;15.50;60.50
1011;DHT22;494;48.744;10.106;2022-08-21T02:17:59;15.40;60.60
1011;DHT22;494;48.744;10.106;2022-08-21T02:20:39;15.40;61.10
1011;DHT22;494;48.744;10.106;2022-08-21T02:23:11;15.40;61.10
1011;DHT22;494;48.744;10.106;2022-08-21T02:25:40;15.30;61.10
1011;DHT22;494;48.744;10.106;2022-08-21T02:28:13;15.30;61.30
1011;DHT22;494;48.744;10.106;2022-08-21T02:30:45;15.40;61.00
1011;DHT22;494;48.744;10.106;2022-08-21T02:33:16;15.40;61.00
1011;DHT22;494;48.744;10.106;2022-08-21T02:35:46;15.40;60.70
1011;DHT22;494;48.744;10.106;2022-08-21T02:38:18;15.30;60.40
1011;DHT22;494;48.744;10.106;2022-08-21T02:40:50;15.30;60.60
1011;DHT22;494;48.744;10.106;2022-08-21T02:43:25;15.30;60.60
1011;DHT22;494;48.744;10.106;2022-08-21T02:45:57;15.30;60.60
1011;DHT22;494;48.744;10.106;2022-08-21T02:48:28;15.40;60.40
1011;DHT22;494;48.744;10.106;2022-08-21T02:51:00;15.30;60.40
1011;DHT22;494;48.744;10.106;2022-08-21T02:53:32;15.30;60.30
1011;DHT22;494;48.744;10.106;2022-08-21T02:56:03;15.30;60.20
1011;DHT22;494;48.744;10.106;2022-08-21T02:58:39;15.30;60.30
1011;DHT22;494;48.744;10.106;2022-08-21T03:01:10;15.20;60.00
1011;DHT22;494;48.744;10.106;2022-08-21T03:03:41;15.30;60.00
1011;DHT22;494;48.744;10.106;2022-08-21T03:06:14;15.20;59.80
1011;DHT22;494;48.744;10.106;2022-08-21T03:08:44;15.30;59.90
1011;DHT22;494;48.744;10.106;2022-08-21T03:11:14;15.30;60.00
1011;DHT22;494;48.744;10.106;2022-08-21T03:13:44;15.30;59.80
1011;DHT22;494;48.744;10.106;2022-08-21T03:16:13;15.30;59.60
1011;DHT22;494;48.744;10.106;2022-08-21T03:18:42;15.30;59.10
1011;DHT22;494;48.744;10.106;2022-08-21T03:21:10;15.10;59.20
1011;DHT22;494;48.744;10.106;2022-08-21T03:23:40;15.00;59.70
1011;DHT22;494;48.744;10.106;2022-08-21T03:26:10;14.90;60.20
1011;DHT22;494;48.744;10.106;2022-08-21T03:28:39;15.00;60.20
1011;DHT22;494;48.744;10.106;2022-08-21T03:31:09;15.00;60.20
1011;DHT22;494;48.744;10.106;2022-08-21T03:33:38;15.00;59.90
1011;DHT22;494;48.744;10.106;2022-08-21T03:36:08;15.10;59.50
1011;DHT22;494;48.744;10.106;2022-08-21T03:38:37;15.00;59.50
1011;DHT22;494;48.744;10.106;2022-08-21T03:41:07;15.10;59.40
1011;DHT22;494;48.744;10.106;2022-08-21T03:43:36;15.10;59.20
1011;DHT22;494;48.744;10.106;2022-08-21T03:46:05;15.10;59.00
1011;DHT22;494;48.744;10.106;2022-08-21T03:48:37;15.00;58.80
1011;DHT22;494;48.744;10.106;2022-08-21T03:51:06;15.00;58.90
1011;DHT22;494;48.744;10.106;2022-08-21T03:53:35;15.00;59.00
1011;DHT22;494;48.744;10.106;2022-08-21T03:56:04;15.00;59.10
1011;DHT22;494;48.744;10.106;2022-08-21T03:58:33;15.10;59.00
1011;DHT22;494;48.744;10.106;2022-08-21T04:01:04;15.10;58.50
1011;DHT22;494;48.744;10.106;2022-08-21T04:03:36;15.10;58.40
1011;DHT22;494;48.744;10.106;2022-08-21T04:06:06;15.10;58.20
1011;DHT22;494;48.744;10.106;2022-08-21T04:08:35;15.10;58.00
1011;DHT22;494;48.744;10.106;2022-08-21T04:11:05;15.10;57.70
1011;DHT22;494;48.744;10.106;2022-08-21T04:13:34;15.20;57.50
1011;DHT22;494;48.744;10.106;2022-08-21T04:16:10;15.20;57.50
1011;DHT22;494;48.744;10.106;2022-08-21T04:18:41;15.20;57.30
1011;DHT22;494;48.744;10.106;2022-08-21T04:21:10;15.20;57.10
1011;DHT22;494;48.744;10.106;2022-08-21T04:23:39;15.20;57.00
1011;DHT22;494;48.744;10.106;2022-08-21T04:26:09;15.20;56.90
1011;DHT22;494;48.744;10.106;2022-08-21T04:28:38;15.20;56.60
1011;DHT22;494;48.744;10.106;2022-08-21T04:31:07;15.20;56.50
1011;DHT22;494;48.744;10.106;2022-08-21T04:33:36;15.30;56.50
1011;DHT22;494;48.744;10.106;2022-08-21T04:36:07;15.30;56.50
1011;DHT22;494;48.744;10.106;2022-08-21T04:38:37;15.30;56.30
1011;DHT22;494;48.744;10.106;2022-08-21T04:41:10;15.30;56.40
1011;DHT22;494;48.744;10.106;2022-08-21T04:43:39;15.30;56.40
1011;DHT22;494;48.744;10.106;2022-08-21T04:46:08;15.30;56.50
1011;DHT22;494;48.744;10.106;2022-08-21T04:48:39;15.30;56.40
1011;DHT22;494;48.744;10.106;2022-08-21T04:51:12;15.30;56.40
1011;DHT22;494;48.744;10.106;2022-08-21T04:53:45;15.40;56.40
1011;DHT22;494;48.744;10.106;2022-08-21T04:56:23;15.40;56.10
1011;DHT22;494;48.744;10.106;2022-08-21T04:58:55;15.40;55.80
1011;DHT22;494;48.744;10.106;2022-08-21T05:01:29;15.30;55.70
1011;DHT22;494;48.744;10.106;2022-08-21T05:04:03;15.30;55.70
1011;DHT22;494;48.744;10.106;2022-08-21T05:06:36;15.40;55.50
1011;DHT22;494;48.744;10.106;2022-08-21T05:09:09;15.40;55.50
1011;DHT22;494;48.744;10.106;2022-08-21T05:11:40;15.40;55.50
1011;DHT22;494;48.744;10.106;2022-08-21T05:14:10;15.40;55.50
1011;DHT22;494;48.744;10.106;2022-08-21T05:16:39;15.50;55.60
1011;DHT22;494;48.744;10.106;2022-08-21T05:19:09;15.50;55.40
1011;DHT22;494;48.744;10.106;2022-08-21T05:21:44;15.40;55.50
1011;DHT22;494;48.744;10.106;2022-08-21T05:24:14;15.50;55.60
1011;DHT22;494;48.744;10.106;2022-08-21T05:26:44;15.50;56.10
1011;DHT22;494;48.744;10.106;2022-08-21T05:29:15;15.50;55.60
1011;DHT22;494;48.744;10.106;2022-08-21T05:31:45;15.50;55.80
1011;DHT22;494;48.744;10.106;2022-08-21T05:34:18;15.60;55.80
1011;DHT22;494;48.744;10.106;2022-08-21T05:36:50;15.70;55.80
1011;DHT22;494;48.744;10.106;2022-08-21T05:39:19;15.80;55.60
1011;DHT22;494;48.744;10.106;2022-08-21T05:41:47;15.90;55.50
1011;DHT22;494;48.744;10.106;2022-08-21T05:44:16;16.00;55.60
1011;DHT22;494;48.744;10.106;2022-08-21T05:46:46;16.10;55.80
1011;DHT22;494;48.744;10.106;2022-08-21T05:49:14;16.10;55.90
1011;DHT22;494;48.744;10.106;2022-08-21T05:51:43;16.20;56.00
1011;DHT22;494;48.744;10.106;2022-08-21T05:54:13;16.30;55.90
1011;DHT22;494;48.744;10.106;2022-08-21T05:56:43;16.40;55.50
1011;DHT22;494;48.744;10.106;2022-08-21T05:59:13;16.50;55.20
1011;DHT22;494;48.744;10.106;2022-08-21T06:01:42;16.60;55.30
1011;DHT22;494;48.744;10.106;2022-08-21T06:04:12;16.60;55.40
1011;DHT22;494;48.744;10.106;2022-08-21T06:06:46;16.70;55.90
1011;DHT22;494;48.744;10.106;2022-08-21T06:09:17;16.90;56.10
1011;DHT22;494;48.744;10.106;2022-08-21T06:11:45;17.00;55.50
1011;DHT22;494;48.744;10.106;2022-08-21T06:14:14;17.20;55.50
1011;DHT22;494;48.744;10.106;2022-08-21T06:16:43;17.30;55.30
1011;DHT22;494;48.744;10.106;2022-08-21T06:19:12;17.50;54.60
1011;DHT22;494;48.744;10.106;2022-08-21T06:21:41;17.60;54.30
1011;DHT22;494;48.744;10.106;2022-08-21T06:24:10;17.80;53.30
1011;DHT22;494;48.744;10.106;2022-08-21T06:26:40;17.90;52.70
1011;DHT22;494;48.744;10.106;2022-08-21T06:29:09;18.00;52.50
1011;DHT22;494;48.744;10.106;2022-08-21T06:31:39;18.10;52.30
1011;DHT22;494;48.744;10.106;2022-08-21T06:34:08;18.20;51.60
1011;DHT22;494;48.744;10.106;2022-08-21T06:36:37;18.40;50.30
1011;DHT22;494;48.744;10.106;2022-08-21T06:39:06;18.60;49.90
1011;DHT22;494;48.744;10.106;2022-08-21T06:41:51;18.70;50.70
1011;DHT22;494;48.744;10.106;2022-08-21T06:44:20;18.80;49.30
1011;DHT22;494;48.744;10.106;2022-08-21T06:46:49;18.90;49.10
1011;DHT22;494;48.744;10.106;2022-08-21T06:49:17;19.10;48.90
1011;DHT22;494;48.744;10.106;2022-08-21T06:51:47;19.20;46.90
1011;DHT22;494;48.744;10.106;2022-08-21T06:54:16;19.30;47.80
1011;DHT22;494;48.744;10.106;2022-08-21T06:56:44;19.50;48.40
1011;DHT22;494;48.744;10.106;2022-08-21T06:59:14;19.70;48.40
1011;DHT22;494;48.744;10.106;2022-08-21T07:01:43;19.90;46.40
1011;DHT22;494;48.744;10.106;2022-08-21T07:04:12;20.00;46.80
1011;DHT22;494;48.744;10.106;2022-08-21T07:06:41;20.20;48.30
1011;DHT22;494;48.744;10.106;2022-08-21T07:09:10;20.40;46.60
1011;DHT22;494;48.744;10.106;2022-08-21T07:11:39;20.60;47.30
1011;DHT22;494;48.744;10.106;2022-08-21T07:14:14;20.80;45.90
1011;DHT22;494;48.744;10.106;2022-08-21T07:16:46;21.00;45.00
1011;DHT22;494;48.744;10.106;2022-08-21T07:19:15;21.10;44.00
1011;DHT22;494;48.744;10.106;2022-08-21T07:21:43;21.30;45.20
1011;DHT22;494;48.744;10.106;2022-08-21T07:24:13;21.50;44.30
1011;DHT22;494;48.744;10.106;2022-08-21T07:26:41;21.70;43.10
1011;DHT22;494;48.744;10.106;2022-08-21T07:29:10;21.80;42.80
1011;DHT22;494;48.744;10.106;2022-08-21T07:31:40;22.00;42.60
1011;DHT22;494;48.744;10.106;2022-08-21T07:34:08;22.10;42.10
1011;DHT22;494;48.744;10.106;2022-08-21T07:36:37;22.30;42.80
1011;DHT22;494;48.744;10.106;2022-08-21T07:39:06;22.50;42.70
1011;DHT22;494;48.744;10.106;2022-08-21T07:41:35;22.70;40.90
1011;DHT22;494;48.744;10.106;2022-08-21T07:44:04;22.90;38.60
1011;DHT22;494;48.744;10.106;2022-08-21T07:46:32;23.00;40.30
1011;DHT22;494;48.744;10.106;2022-08-21T07:49:02;23.30;37.90
1011;DHT22;494;48.744;10.106;2022-08-21T07:51:32;23.50;34.90
1011;DHT22;494;48.744;10.106;2022-08-21T07:54:01;23.70;32.40
1011;DHT22;494;48.744;10.106;2022-08-21T07:56:32;23.80;31.80
1011;DHT22;494;48.744;10.106;2022-08-21T07:59:01;23.90;32.30
1011;DHT22;494;48.744;10.106;2022-08-21T08:01:34;23.90;29.60
1011;DHT22;494;48.744;10.106;2022-08-21T08:04:04;24.10;29.50
1011;DHT22;494;48.744;10.106;2022-08-21T08:06:33;24.20;28.40
1011;DHT22;494;48.744;10.106;2022-08-21T08:09:02;24.30;28.30
1011;DHT22;494;48.744;10.106;2022-08-21T08:11:31;24.40;27.20
1011;DHT22;494;48.744;10.106;2022-08-21T08:13:59;24.60;25.50
1011;DHT22;494;48.744;10.106;2022-08-21T08:16:30;24.60;26.90
1011;DHT22;494;48.744;10.106;2022-08-21T08:18:59;24.80;26.60
1011;DHT22;494;48.744;10.106;2022-08-21T08:21:29;25.00;25.10
1011;DHT22;494;48.744;10.106;2022-08-21T08:24:00;25.10;24.10
1011;DHT22;494;48.744;10.106;2022-08-21T08:26:45;25.20;23.20
1011;DHT22;494;48.744;10.106;2022-08-21T08:29:20;25.40;22.60
1011;DHT22;494;48.744;10.106;2022-08-21T08:31:49;25.60;21.20
1011;DHT22;494;48.744;10.106;2022-08-21T08:34:17;25.80;21.70
1011;DHT22;494;48.744;10.106;2022-08-21T08:36:54;25.80;20.40
1011;DHT22;494;48.744;10.106;2022-08-21T08:39:25;25.90;19.50
1011;DHT22;494;48.744;10.106;2022-08-21T08:41:58;26.00;20.30
1011;DHT22;494;48.744;10.106;2022-08-21T08:44:57;26.20;22.10
1011;DHT22;494;48.744;10.106;2022-08-21T08:47:30;26.30;19.40
1011;DHT22;494;48.744;10.106;2022-08-21T08:50:03;26.40;19.50
1011;DHT22;494;48.744;10.106;2022-08-21T08:52:36;26.60;18.50
1011;DHT22;494;48.744;10.106;2022-08-21T08:55:14;26.80;19.00
1011;DHT22;494;48.744;10.106;2022-08-21T08:57:53;27.00;19.00
1011;DHT22;494;48.744;10.106;2022-08-21T09:00:24;27.10;18.60
1011;DHT22;494;48.744;10.106;2022-08-21T09:02:54;27.30;18.10
1011;DHT22;494;48.744;10.106;2022-08-21T09:05:28;27.40;17.30
1011;DHT22;494;48.744;10.106;2022-08-21T09:08:20;27.70;17.10
1011;DHT22;494;48.744;10.106;2022-08-21T09:11:02;27.80;17.00
1011;DHT22;494;48.744;10.106;2022-08-21T09:13:44;28.00;15.60
1011;DHT22;494;48.744;10.106;2022-08-21T09:16:25;28.10;16.80
1011;DHT22;494;48.744;10.106;2022-08-21T09:19:07;28.20;16.20
1011;DHT22;494;48.744;10.106;2022-08-21T09:22:00;28.40;15.60
1011;DHT22;494;48.744;10.106;2022-08-21T09:24:47;28.40;15.10
1011;DHT22;494;48.744;10.106;2022-08-21T09:27:20;28.50;14.50
1011;DHT22;494;48.744;10.106;2022-08-21T09:29:53;28.50;14.50
1011;DHT22;494;48.744;10.106;2022-08-21T09:32:26;28.50;14.60
1011;DHT22;494;48.744;10.106;2022-08-21T09:35:07;28.60;14.20
1011;DHT22;494;48.744;10.106;2022-08-21T09:37:48;28.80;13.80
1011;DHT22;494;48.744;10.106;2022-08-21T09:40:29;29.00;13.10
1011;DHT22;494;48.744;10.106;2022-08-21T09:43:02;29.20;13.20
1011;DHT22;494;48.744;10.106;2022-08-21T09:45:35;29.20;13.00
1011;DHT22;494;48.744;10.106;2022-08-21T09:48:11;29.20;13.30
1011;DHT22;494;48.744;10.106;2022-08-21T09:50:44;29.20;12.20
1011;DHT22;494;48.744;10.106;2022-08-21T09:53:19;29.20;12.10
1011;DHT22;494;48.744;10.106;2022-08-21T09:55:52;29.30;12.20
1011;DHT22;494;48.744;10.106;2022-08-21T09:58:46;29.50;12.90
1011;DHT22;494;48.744;10.106;2022-08-21T10:01:17;29.60;13.10
1011;DHT22;494;48.744;10.106;2022-08-21T10:03:49;29.80;12.80
1011;DHT22;494;48.744;10.106;2022-08-21T10:06:30;29.90;13.10
1011;DHT22;494;48.744;10.106;2022-08-21T10:09:07;30.00;11.20
1011;DHT22;494;48.744;10.106;2022-08-21T10:11:51;30.20;12.20
1011;DHT22;494;48.744;10.106;2022-08-21T10:14:38;30.30;10.70
1011;DHT22;494;48.744;10.106;2022-08-21T10:17:19;30.10;11.80
1011;DHT22;494;48.744;10.106;2022-08-21T10:20:00;30.00;12.30
1011;DHT22;494;48.744;10.106;2022-08-21T10:22:38;30.10;11.90
1011;DHT22;494;48.744;10.106;2022-08-21T10:25:18;30.10;11.50
1011;DHT22;494;48.744;10.106;2022-08-21T10:28:00;30.00;11.70
1011;DHT22;494;48.744;10.106;2022-08-21T10:30:46;30.10;12.70
1011;DHT22;494;48.744;10.106;2022-08-21T10:33:31;30.30;12.50
1011;DHT22;494;48.744;10.106;2022-08-21T10:36:13;30.40;11.00
1011;DHT22;494;48.744;10.106;2022-08-21T10:38:58;30.50;11.10
1011;DHT22;494;48.744;10.106;2022-08-21T10:42:17;30.50;10.90
1011;DHT22;494;48.744;10.106;2022-08-21T10:45:07;30.80;9.80
1011;DHT22;494;48.744;10.106;2022-08-21T10:47:46;31.00;11.50
1011;DHT22;494;48.744;10.106;2022-08-21T10:50:30;31.20;10.70
1011;DHT22;494;48.744;10.106;2022-08-21T10:53:13;31.50;10.70
1011;DHT22;494;48.744;10.106;2022-08-21T10:55:55;31.60;11.20
1011;DHT22;494;48.744;10.106;2022-08-21T10:58:29;31.80;9.90
1011;DHT22;494;48.744;10.106;2022-08-21T11:01:08;31.80;10.60
1011;DHT22;494;48.744;10.106;2022-08-21T11:03:44;31.90;9.80
1011;DHT22;494;48.744;10.106;2022-08-21T11:06:17;32.00;9.80
1011;DHT22;494;48.744;10.106;2022-08-21T11:08:52;32.00;10.60
1011;DHT22;494;48.744;10.106;2022-08-21T11:11:29;32.10;10.40
1011;DHT22;494;48.744;10.106;2022-08-21T11:14:08;32.20;9.70
1011;DHT22;494;48.744;10.106;2022-08-21T11:16:49;32.10;8.60
1011;DHT22;494;48.744;10.106;2022-08-21T11:19:28;32.00;9.00
1011;DHT22;494;48.744;10.106;2022-08-21T11:22:08;32.10;8.90
1011;DHT22;494;48.744;10.106;2022-08-21T11:24:46;32.20;7.70
1011;DHT22;494;48.744;10.106;2022-08-21T11:27:23;32.20;7.00
1011;DHT22;494;48.744;10.106;2022-08-21T11:29:59;32.30;9.30
1011;DHT22;494;48.744;10.106;2022-08-21T11:33:04;32.50;8.90
1011;DHT22;494;48.744;10.106;2022-08-21T11:35:49;32.30;9.70
1011;DHT22;494;48.744;10.106;2022-08-21T11:38:28;32.40;10.40
1011;DHT22;494;48.744;10.106;2022-08-21T11:41:18;32.70;8.80
1011;DHT22;494;48.744;10.106;2022-08-21T11:44:02;32.80;9.30
1011;DHT22;494;48.744;10.106;2022-08-21T11:46:47;32.80;8.00
1011;DHT22;494;48.744;10.106;2022-08-21T11:49:47;32.90;9.30
1011;DHT22;494;48.744;10.106;2022-08-21T11:52:31;32.80;10.90
1011;DHT22;494;48.744;10.106;2022-08-21T11:55:10;33.00;10.10
1011;DHT22;494;48.744;10.106;2022-08-21T11:57:54;33.20;10.40
1011;DHT22;494;48.744;10.106;2022-08-21T12:00:29;33.30;9.90
1011;DHT22;494;48.744;10.106;2022-08-21T12:03:07;33.20;9.10
1011;DHT22;494;48.744;10.106;2022-08-21T12:05:43;33.40;8.80
1011;DHT22;494;48.744;10.106;2022-08-21T12:08:28;33.80;7.70
1011;DHT22;494;48.744;10.106;2022-08-21T12:11:05;34.10;8.00
1011;DHT22;494;48.744;10.106;2022-08-21T12:13:39;34.30;6.80
1011;DHT22;494;48.744;10.106;2022-08-21T12:16:30;34.00;7.90
1011;DHT22;494;48.744;10.106;2022-08-21T12:19:04;33.80;8.00
1011;DHT22;494;48.744;10.106;2022-08-21T12:21:48;33.70;9.90
1011;DHT22;494;48.744;10.106;2022-08-21T12:24:33;34.00;9.00
1011;DHT22;494;48.744;10.106;2022-08-21T12:27:22;34.30;7.90
1011;DHT22;494;48.744;10.106;2022-08-21T12:29:59;34.70;8.40
1011;DHT22;494;48.744;10.106;2022-08-21T12:32:41;35.00;8.20
1011;DHT22;494;48.744;10.106;2022-08-21T12:35:15;35.20;8.00
1011;DHT22;494;48.744;10.106;2022-08-21T12:37:58;35.20;7.50
1011;DHT22;494;48.744;10.106;2022-08-21T12:40:39;35.20;7.60
1011;DHT22;494;48.744;10.106;2022-08-21T12:43:15;35.20;5.90
1011;DHT22;494;48.744;10.106;2022-08-21T12:45:49;35.20;6.10
1011;DHT22;494;48.744;10.106;2022-08-21T12:48:23;35.30;5.50
1011;DHT22;494;48.744;10.106;2022-08-21T12:50:58;35.40;7.10
1011;DHT22;494;48.744;10.106;2022-08-21T12:53:44;35.40;7.00
1011;DHT22;494;48.744;10.106;2022-08-21T12:56:16;35.70;6.10
1011;DHT22;494;48.744;10.106;2022-08-21T12:58:49;35.70;6.00
1011;DHT22;494;48.744;10.106;2022-08-21T13:01:23;35.40;5.80
1011;DHT22;494;48.744;10.106;2022-08-21T13:03:58;35.20;5.70
1011;DHT22;494;48.744;10.106;2022-08-21T13:06:37;35.00;6.20
1011;DHT22;494;48.744;10.106;2022-08-21T13:09:12;35.00;6.90
1011;DHT22;494;48.744;10.106;2022-08-21T13:11:47;34.50;6.80
1011;DHT22;494;48.744;10.106;2022-08-21T13:14:25;34.10;7.60
1011;DHT22;494;48.744;10.106;2022-08-21T13:16:59;34.20;8.60
1011;DHT22;494;48.744;10.106;2022-08-21T13:19:32;34.70;6.80
1011;DHT22;494;48.744;10.106;2022-08-21T13:22:01;35.00;7.60
1011;DHT22;494;48.744;10.106;2022-08-21T13:24:52;35.20;6.20
1011;DHT22;494;48.744;10.106;2022-08-21T13:27:24;34.50;6.70
1011;DHT22;494;48.744;10.106;2022-08-21T13:30:04;33.80;7.00
1011;DHT22;494;48.744;10.106;2022-08-21T13:32:42;32.90;7.60
1011;DHT22;494;48.744;10.106;2022-08-21T13:35:16;32.40;8.80
1011;DHT22;494;48.744;10.106;2022-08-21T13:37:48;32.10;8.80
1011;DHT22;494;48.744;10.106;2022-08-21T13:40:24;31.70;8.80
1011;DHT22;494;48.744;10.106;2022-08-21T13:42:55;31.40;10.30
1011;DHT22;494;48.744;10.106;2022-08-21T13:45:27;30.90;11.50
1011;DHT22;494;48.744;10.106;2022-08-21T13:48:01;30.50;12.80
1011;DHT22;494;48.744;10.106;2022-08-21T13:50:41;30.20;14.40
1011;DHT22;494;48.744;10.106;2022-08-21T13:53:21;30.50;12.10
1011;DHT22;494;48.744;10.106;2022-08-21T13:55:52;30.90;12.90
1011;DHT22;494;48.744;10.106;2022-08-21T13:58:28;31.40;12.30
1011;DHT22;494;48.744;10.106;2022-08-21T14:01:00;31.70;9.80
1011;DHT22;494;48.744;10.106;2022-08-21T14:03:35;32.30;8.80
1011;DHT22;494;48.744;10.106;2022-08-21T14:06:12;33.10;7.20
1011;DHT22;494;48.744;10.106;2022-08-21T14:08:48;33.60;7.00
1011;DHT22;494;48.744;10.106;2022-08-21T14:11:20;34.20;6.30
1011;DHT22;494;48.744;10.106;2022-08-21T14:13:55;34.80;5.10
1011;DHT22;494;48.744;10.106;2022-08-21T14:16:27;35.40;4.60
1011;DHT22;494;48.744;10.106;2022-08-21T14:19:10;35.70;4.70
1011;DHT22;494;48.744;10.106;2022-08-21T14:21:47;36.20;4.90
1011;DHT22;494;48.744;10.106;2022-08-21T14:24:26;36.50;3.60
1011;DHT22;494;48.744;10.106;2022-08-21T14:27:04;35.90;4.20
1011;DHT22;494;48.744;10.106;2022-08-21T14:29:37;35.30;5.30
1011;DHT22;494;48.744;10.106;2022-08-21T14:32:15;34.50;5.00
1011;DHT22;494;48.744;10.106;2022-08-21T14:34:51;33.80;5.30
1011;DHT22;494;48.744;10.106;2022-08-21T14:37:21;34.00;5.20
1011;DHT22;494;48.744;10.106;2022-08-21T14:39:49;34.80;4.50
1011;DHT22;494;48.744;10.106;2022-08-21T14:42:19;35.40;4.00
1011;DHT22;494;48.744;10.106;2022-08-21T14:44:48;35.80;3.00
1011;DHT22;494;48.744;10.106;2022-08-21T14:47:17;36.60;2.70
1011;DHT22;494;48.744;10.106;2022-08-21T14:49:45;37.40;2.80
1011;DHT22;494;48.744;10.106;2022-08-21T14:52:14;37.80;1.80
1011;DHT22;494;48.744;10.106;2022-08-21T14:54:43;38.10;2.60
1011;DHT22;494;48.744;10.106;2022-08-21T14:57:11;38.20;2.30
1011;DHT22;494;48.744;10.106;2022-08-21T14:59:42;38.30;2.00
1011;DHT22;494;48.744;10.106;2022-08-21T15:02:11;38.20;1.00
1011;DHT22;494;48.744;10.106;2022-08-21T15:04:40;38.10;1.00
1011;DHT22;494;48.744;10.106;2022-08-21T15:07:09;37.50;1.00
1011;DHT22;494;48.744;10.106;2022-08-21T15:09:37;37.10;1.00
1011;DHT22;494;48.744;10.106;2022-08-21T15:12:07;36.90;1.00
1011;DHT22;494;48.744;10.106;2022-08-21T15:14:39;37.00;1.00
1011;DHT22;494;48.744;10.106;2022-08-21T15:17:10;37.10;1.00
1011;DHT22;494;48.744;10.106;2022-08-21T15:19:39;37.20;1.40
1011;DHT22;494;48.744;10.106;2022-08-21T15:22:08;37.30;1.00
1011;DHT22;494;48.744;10.106;2022-08-21T15:24:45;37.50;1.00
1011;DHT22;494;48.744;10.106;2022-08-21T15:27:14;37.40;1.20
1011;DHT22;494;48.744;10.106;2022-08-21T15:29:46;37.50;1.90
1011;DHT22;494;48.744;10.106;2022-08-21T15:32:19;37.30;1.00
1011;DHT22;494;48.744;10.106;2022-08-21T15:34:50;37.20;1.00
1011;DHT22;494;48.744;10.106;2022-08-21T15:37:18;36.70;1.00
1011;DHT22;494;48.744;10.106;2022-08-21T15:39:48;36.20;2.00
1011;DHT22;494;48.744;10.106;2022-08-21T15:42:21;35.80;2.20
1011;DHT22;494;48.744;10.106;2022-08-21T15:44:51;35.20;3.40
1011;DHT22;494;48.744;10.106;2022-08-21T15:47:27;34.80;4.10
1011;DHT22;494;48.744;10.106;2022-08-21T15:49:57;34.70;4.40
1011;DHT22;494;48.744;10.106;2022-08-21T15:52:26;34.60;4.60
1011;DHT22;494;48.744;10.106;2022-08-21T15:54:54;34.60;4.30
1011;DHT22;494;48.744;10.106;2022-08-21T15:57:24;34.90;4.40
1011;DHT22;494;48.744;10.106;2022-08-21T15:59:56;35.00;4.80
1011;DHT22;494;48.744;10.106;2022-08-21T16:02:30;35.30;3.80
1011;DHT22;494;48.744;10.106;2022-08-21T16:04:59;35.40;3.30
1011;DHT22;494;48.744;10.106;2022-08-21T16:07:28;35.60;3.50
1011;DHT22;494;48.744;10.106;2022-08-21T16:09:56;35.80;3.10
1011;DHT22;494;48.744;10.106;2022-08-21T16:12:27;35.80;3.50
1011;DHT22;494;48.744;10.106;2022-08-21T16:15:00;35.70;3.10
1011;DHT22;494;48.744;10.106;2022-08-21T16:17:33;35.70;2.90
1011;DHT22;494;48.744;10.106;2022-08-21T16:20:06;35.50;5.20
1011;DHT22;494;48.744;10.106;2022-08-21T16:22:37;35.30;6.80
1011;DHT22;494;48.744;10.106;2022-08-21T16:25:20;35.10;6.90
1011;DHT22;494;48.744;10.106;2022-08-21T16:27:52;34.80;7.70
1011;DHT22;494;48.744;10.106;2022-08-21T16:30:26;34.60;5.40
1011;DHT22;494;48.744;10.106;2022-08-21T16:32:56;34.40;6.30
1011;DHT22;494;48.744;10.106;2022-08-21T16:35:26;34.00;7.90
1011;DHT22;494;48.744;10.106;2022-08-21T16:37:55;33.80;6.80
1011;DHT22;494;48.744;10.106;2022-08-21T16:40:24;33.90;7.90
1011;DHT22;494;48.744;10.106;2022-08-21T16:42:53;33.90;7.90
1011;DHT22;494;48.744;10.106;2022-08-21T16:45:22;34.10;7.80
1011;DHT22;494;48.744;10.106;2022-08-21T16:47:50;34.00;9.00